createdAt,value
2023-01-30T00:04:00.938Z,21.13
2023-01-30T00:10:03.361Z,31.47
2023-01-30T00:16:08.722Z,26.00
2023-01-30T00:22:11.293Z,30.20
2023-01-30T00:28:13.823Z,30.33
2023-01-30T00:34:15.866Z,29.43
2023-01-30T00:40:20.805Z,19.20
2023-01-30T00:46:59.287Z,67.37
2023-01-30T00:53:01.777Z,31.10
2023-01-30T00:59:07.240Z,27.87
2023-01-30T01:05:09.687Z,26.47
2023-01-30T01:11:26.201Z,27.23
2023-01-30T01:17:28.653Z,24.50
2023-01-30T01:23:31.103Z,23.53
2023-01-30T01:29:33.576Z,23.93
2023-01-30T01:35:36.049Z,24.53
2023-01-30T01:41:38.494Z,22.70
2023-01-30T01:47:58.020Z,23.07
2023-01-30T01:54:10.485Z,24.57
2023-01-30T02:00:16.013Z,23.87
2023-01-30T02:06:19.426Z,23.07
2023-01-30T02:12:21.897Z,23.83
2023-01-30T02:18:26.970Z,24.27
2023-01-30T02:24:49.661Z,24.57
2023-01-30T02:31:00.587Z,24.63
2023-01-30T02:37:40.984Z,26.70
2023-01-30T02:44:06.524Z,24.47
2023-01-30T02:50:15.020Z,25.73
2023-01-30T02:56:17.471Z,26.17
2023-01-30T03:02:50.801Z,25.50
2023-01-30T03:09:08.143Z,25.50
2023-01-30T03:15:22.092Z,24.47
2023-01-30T03:21:28.602Z,25.30
2023-01-30T03:27:31.058Z,30.03
2023-01-30T03:33:33.546Z,27.67
2023-01-30T03:39:38.956Z,33.77
2023-01-30T03:45:41.420Z,25.70
2023-01-30T03:51:45.691Z,31.50
2023-01-30T03:57:51.351Z,32.83
2023-01-30T04:03:57.814Z,29.73
2023-01-30T04:10:00.349Z,31.47
2023-01-30T04:16:22.818Z,37.67
2023-01-30T04:22:27.011Z,29.23
2023-01-30T04:28:29.708Z,31.00
2023-01-30T04:34:32.165Z,28.63
2023-01-30T04:40:34.608Z,34.47
2023-01-30T04:46:37.072Z,24.87
2023-01-30T04:52:39.967Z,27.63
2023-01-30T04:58:41.971Z,33.90
2023-01-30T05:04:43.738Z,28.67
2023-01-30T05:10:51.903Z,25.03
2023-01-30T05:16:55.955Z,52.67
2023-01-30T05:22:57.875Z,32.70
2023-01-30T05:29:00.338Z,33.53
2023-01-30T05:35:02.812Z,35.57
2023-01-30T05:41:07.469Z,30.90
2023-01-30T05:47:10.699Z,34.23
2023-01-30T05:53:15.175Z,48.60
2023-01-30T05:59:19.638Z,41.57
2023-01-30T06:05:21.623Z,38.33
2023-01-30T06:11:25.591Z,37.23
2023-01-30T06:17:29.959Z,31.43
2023-01-30T06:23:32.524Z,34.60
2023-01-30T06:29:35.015Z,32.07
2023-01-30T06:35:42.469Z,31.20
2023-01-30T06:41:44.476Z,26.40
2023-01-30T06:47:54.462Z,23.37
2023-01-30T06:53:59.848Z,34.77
2023-01-30T07:00:01.891Z,26.57
2023-01-30T07:06:03.912Z,24.73
2023-01-30T07:12:06.237Z,25.77
2023-01-30T07:18:08.761Z,30.17
2023-01-30T07:24:11.184Z,30.00
2023-01-30T07:30:13.653Z,26.37
2023-01-30T07:36:16.118Z,27.47
2023-01-30T07:42:18.597Z,31.03
2023-01-30T07:48:21.085Z,26.20
2023-01-30T07:54:23.027Z,28.00
2023-01-30T08:00:25.280Z,29.87
2023-01-30T08:06:30.439Z,28.67
2023-01-30T08:12:32.903Z,23.23
2023-01-30T08:18:36.347Z,31.00
2023-01-30T08:24:38.077Z,31.37
2023-01-30T08:30:41.937Z,27.27
2023-01-30T08:36:49.837Z,28.27
2023-01-30T08:42:52.275Z,26.20
2023-01-30T08:48:54.695Z,26.60
2023-01-30T08:55:06.088Z,27.83
2023-01-30T09:01:11.074Z,27.27
2023-01-30T09:07:13.152Z,29.43
2023-01-30T09:13:22.972Z,25.77
2023-01-30T09:19:37.226Z,23.90
2023-01-30T09:25:46.658Z,24.43
2023-01-30T09:31:55.548Z,26.90
2023-01-30T09:38:11.038Z,25.47
2023-01-30T09:44:24.120Z,23.13
2023-01-30T09:51:00.749Z,28.53
2023-01-30T09:57:23.251Z,29.87
2023-01-30T10:03:39.736Z,25.30
2023-01-30T10:10:24.220Z,20.37
2023-01-30T10:17:01.768Z,15.23
2023-01-30T10:23:17.198Z,21.00
2023-01-30T10:29:30.062Z,21.67
2023-01-30T10:35:44.542Z,24.67
2023-01-30T10:42:14.104Z,26.57
2023-01-30T10:48:46.401Z,29.63
2023-01-30T10:54:52.484Z,21.70
2023-01-30T11:01:15.242Z,20.63
2023-01-30T11:07:25.187Z,21.60
2023-01-30T11:13:42.230Z,22.20
2023-01-30T11:19:45.144Z,20.40
2023-01-30T11:26:09.170Z,21.50
2023-01-30T11:32:29.494Z,20.93
2023-01-30T11:38:48.705Z,18.23
2023-01-30T11:45:17.592Z,17.57
2023-01-30T11:51:26.809Z,22.43
2023-01-30T11:57:42.385Z,20.83
2023-01-30T12:03:55.866Z,21.83
2023-01-30T12:10:24.208Z,20.90
2023-01-30T12:17:04.761Z,22.03
2023-01-30T12:30:58.144Z,24.33
2023-01-30T12:37:30.038Z,19.63
2023-01-30T12:44:16.380Z,21.07
2023-01-30T12:50:32.541Z,20.53
2023-01-30T12:57:18.116Z,23.97
2023-01-30T13:03:44.666Z,24.53
2023-01-30T13:10:52.061Z,24.43
2023-01-30T13:17:12.683Z,40.03
2023-01-30T13:23:57.292Z,41.20
2023-01-30T13:30:12.999Z,30.93
2023-01-30T13:36:52.177Z,29.63
2023-01-30T13:43:41.984Z,42.30
2023-01-30T13:50:12.796Z,31.20
2023-01-30T13:56:49.856Z,33.23
2023-01-30T14:03:25.769Z,30.93
2023-01-30T14:09:37.267Z,37.90
2023-01-30T14:16:28.638Z,37.87
2023-01-30T14:22:46.685Z,45.10
2023-01-30T14:28:59.977Z,54.60
2023-01-30T14:35:17.173Z,58.77
2023-01-30T14:41:35.225Z,46.70
2023-01-30T14:47:46.871Z,61.47
2023-01-30T14:54:03.358Z,53.27
2023-01-30T15:00:40.216Z,44.73
2023-01-30T15:06:50.068Z,50.87
2023-01-30T15:13:36.874Z,52.10
2023-01-30T15:20:21.324Z,46.87
2023-01-30T15:26:52.951Z,43.53
2023-01-30T15:33:30.863Z,45.33
2023-01-30T15:39:33.946Z,36.47
2023-01-30T15:52:18.019Z,27.87
2023-01-30T15:58:26.392Z,24.07
2023-01-30T16:04:37.008Z,31.07
2023-01-30T16:10:51.559Z,26.37
2023-01-30T16:17:12.513Z,25.07
2023-01-30T16:23:30.814Z,22.17
2023-01-30T16:29:57.764Z,23.70
2023-01-30T16:36:04.963Z,15.50
2023-01-30T16:42:35.110Z,16.80
2023-01-30T16:48:41.675Z,16.97
2023-01-30T16:55:00.170Z,34.13
2023-01-30T17:01:18.357Z,17.90
2023-01-30T17:14:18.608Z,24.27
2023-01-30T17:26:40.704Z,23.23
2023-01-30T17:32:58.485Z,30.43
2023-01-30T17:39:00.466Z,23.60
2023-01-30T17:45:03.318Z,30.80
2023-01-30T17:51:05.822Z,48.40
2023-01-30T17:57:12.584Z,45.57
2023-01-30T18:03:15.808Z,37.10
2023-01-30T18:09:23.268Z,32.67
2023-01-30T18:15:26.739Z,38.97
2023-01-30T18:21:29.189Z,33.97
2023-01-30T18:27:35.062Z,32.80
2023-01-30T18:33:38.101Z,26.90
2023-01-30T18:39:52.036Z,34.20
2023-01-30T18:46:09.208Z,18.60
2023-01-30T18:52:17.639Z,16.17
2023-01-30T18:58:35.799Z,12.87
2023-01-30T19:04:38.631Z,15.83
2023-01-30T19:10:41.060Z,16.40
2023-01-30T19:16:45.997Z,19.60
2023-01-30T19:22:57.529Z,16.30
2023-01-30T19:29:01.511Z,13.67
2023-01-30T19:35:07.970Z,15.30
2023-01-30T19:41:18.471Z,18.77
2023-01-30T19:47:30.963Z,16.33
2023-01-30T19:53:37.430Z,14.37
2023-01-30T19:59:40.895Z,21.87
2023-01-30T20:05:45.848Z,17.93
2023-01-30T20:11:49.832Z,24.27
2023-01-30T20:18:02.069Z,30.67
2023-01-30T20:24:20.054Z,23.47
2023-01-30T20:30:26.285Z,17.07
2023-01-30T20:36:30.621Z,21.37
2023-01-30T20:42:36.204Z,18.77
2023-01-30T20:48:44.070Z,37.53
2023-01-30T21:01:26.868Z,37.07
2023-01-30T21:07:29.226Z,32.93
2023-01-30T21:13:39.423Z,23.27
2023-01-30T21:19:43.527Z,35.47
2023-01-30T21:25:46.000Z,59.03
2023-01-30T21:31:49.923Z,37.60
2023-01-30T21:38:19.679Z,39.30
2023-01-30T21:44:30.158Z,38.93
2023-01-30T21:50:37.952Z,27.80
2023-01-30T21:56:40.753Z,22.17
2023-01-30T22:02:56.718Z,16.57
2023-01-30T22:09:08.043Z,13.27
2023-01-30T22:15:22.256Z,12.13
2023-01-30T22:21:29.154Z,11.90
2023-01-30T22:27:31.975Z,14.10
2023-01-30T22:33:37.115Z,18.57
2023-01-30T22:39:39.561Z,21.73
2023-01-30T22:45:42.042Z,15.50
2023-01-30T22:51:46.578Z,15.30
2023-01-30T22:57:59.077Z,13.70
2023-01-30T23:04:27.616Z,12.83
2023-01-30T23:10:30.084Z,12.33
2023-01-30T23:16:48.779Z,11.50
2023-01-30T23:23:07.894Z,9.40
2023-01-30T23:29:29.063Z,9.17
2023-01-30T23:35:50.521Z,14.13
2023-01-30T23:42:01.303Z,13.67
2023-01-30T23:48:19.009Z,11.90
2023-01-30T23:54:33.117Z,12.50
